Time;durP1;ratioP1;P1;durP2;ratioP2;P2;SDS_P1;SDS_P2;PMS_P1;PMS_P2;Temp;Humidity;BMP_temperature;BMP_pressure;BME280_temperature;BME280_humidity;BME280_pressure;Samples;Min_cycle;Max_cycle;Signal;HPM_P1;HPM_P2
2024/04/19 04:06:52;;;;;;;0.30;0.30;;;7.10;99.90;;;;;;5887877;21;20394;-69
2024/04/19 04:09:17;;;;;;;0.30;0.30;;;7.20;99.90;;;;;;5277907;27;20228;-68
2024/04/19 04:11:43;;;;;;;0.40;0.40;;;7.20;99.90;;;;;;5279099;27;20601;-69
2024/04/19 04:14:08;;;;;;;0.30;0.30;;;7.10;99.90;;;;;;5276584;27;20231;-69
2024/04/19 04:16:34;;;;;;;0.30;0.30;;;7.10;99.90;;;;;;5276343;27;20230;-69
2024/04/19 04:19:00;;;;;;;0.40;0.40;;;7.10;99.90;;;;;;5278188;27;20222;-68
2024/04/19 04:21:25;;;;;;;0.30;0.30;;;7.00;99.90;;;;;;5277933;27;20222;-68
2024/04/19 04:23:51;;;;;;;0.30;0.30;;;7.00;99.90;;;;;;5276136;27;20231;-69
2024/04/19 04:26:16;;;;;;;0.40;0.40;;;7.00;99.90;;;;;;5275926;27;20257;-68
2024/04/19 04:28:42;;;;;;;0.30;0.30;;;7.00;99.90;;;;;;5277953;27;20227;-70
2024/04/19 04:31:08;;;;;;;0.30;0.30;;;7.10;99.90;;;;;;5277756;27;20223;-69
2024/04/19 04:33:34;;;;;;;0.30;0.30;;;7.10;99.90;;;;;;5277382;27;20233;-69
2024/04/19 04:35:59;;;;;;;0.40;0.40;;;7.10;99.90;;;;;;5275359;27;20229;-69
2024/04/19 04:38:25;;;;;;;0.30;0.30;;;7.00;99.90;;;;;;5275413;27;21015;-69
2024/04/19 04:40:50;;;;;;;0.30;0.30;;;7.10;99.90;;;;;;5277711;27;20223;-69
2024/04/19 04:43:16;;;;;;;0.30;0.30;;;7.10;99.90;;;;;;5277724;27;20273;-68
2024/04/19 04:45:45;;;;;;;0.33;0.33;;;7.10;99.90;;;;;;5277229;27;20685;-69
2024/04/19 04:48:10;;;;;;;0.30;0.30;;;7.20;99.90;;;;;;5277615;27;20229;-69
2024/04/19 04:50:36;;;;;;;0.33;0.33;;;7.10;99.90;;;;;;5277706;27;20658;-69
2024/04/19 04:53:02;;;;;;;0.30;0.30;;;7.20;99.90;;;;;;5277299;27;20223;-70
2024/04/19 04:55:30;;;;;;;0.40;0.40;;;7.20;99.90;;;;;;5276880;27;20214;-68
2024/04/19 04:57:55;;;;;;;0.32;0.32;;;7.10;99.90;;;;;;5277328;27;20258;-68
2024/04/19 05:00:21;;;;;;;0.30;0.30;;;7.10;99.90;;;;;;5277509;27;20219;-68
2024/04/19 05:02:47;;;;;;;0.30;0.30;;;7.10;99.90;;;;;;5277057;27;20423;-69
2024/04/19 05:05:13;;;;;;;0.30;0.30;;;7.20;99.90;;;;;;5276727;27;20230;-67
2024/04/19 05:07:38;;;;;;;0.30;0.30;;;7.20;99.90;;;;;;5276795;27;20295;-67
2024/04/19 05:10:05;;;;;;;0.40;0.40;;;7.20;99.90;;;;;;5277127;27;20670;-65
2024/04/19 05:12:30;;;;;;;0.30;0.30;;;7.20;99.90;;;;;;5277053;27;20223;-63
2024/04/19 05:14:56;;;;;;;0.30;0.30;;;7.20;99.90;;;;;;5274590;27;20220;-66
2024/04/19 05:17:21;;;;;;;0.80;0.80;;;7.20;99.90;;;;;;5276826;27;20235;-67
2024/04/19 05:19:47;;;;;;;0.30;0.30;;;7.20;99.90;;;;;;5298085;27;20233;-64
2024/04/19 05:22:12;;;;;;;0.40;0.40;;;7.20;99.90;;;;;;5276906;27;20231;-66
2024/04/19 05:24:39;;;;;;;0.30;0.30;;;7.30;99.90;;;;;;5277196;27;20334;-65
2024/04/19 05:27:04;;;;;;;0.30;0.30;;;7.30;99.90;;;;;;5276500;27;20285;-65
2024/04/19 05:29:30;;;;;;;0.30;0.30;;;7.30;99.90;;;;;;5279761;27;20215;-64
2024/04/19 05:31:56;;;;;;;0.30;0.30;;;7.40;99.90;;;;;;5280113;27;21036;-65
2024/04/19 05:34:21;;;;;;;0.33;0.33;;;7.40;99.90;;;;;;5278338;27;20223;-67
2024/04/19 05:36:47;;;;;;;0.30;0.30;;;7.40;99.90;;;;;;5277972;27;20243;-68
2024/04/19 05:39:13;;;;;;;0.40;0.40;;;7.40;99.90;;;;;;5279953;27;20802;-68
2024/04/19 05:41:39;;;;;;;0.30;0.30;;;7.40;99.90;;;;;;5279796;27;20351;-67
2024/04/19 05:44:05;;;;;;;0.50;0.50;;;7.40;99.90;;;;;;5279832;27;20235;-67
2024/04/19 05:46:31;;;;;;;0.30;0.30;;;7.40;99.90;;;;;;5293829;27;20281;-68
2024/04/19 05:48:57;;;;;;;0.40;0.40;;;7.50;99.90;;;;;;5297481;26;20550;-68
2024/04/19 05:51:22;;;;;;;0.30;0.30;;;7.50;99.90;;;;;;5314111;26;20234;-66
2024/04/19 05:53:48;;;;;;;0.30;0.30;;;7.50;99.90;;;;;;5314300;26;20723;-67
2024/04/19 05:56:13;;;;;;;0.30;0.30;;;7.60;99.90;;;;;;5313634;26;20252;-66
2024/04/19 05:58:39;;;;;;;0.30;0.30;;;7.70;99.90;;;;;;5313166;27;20218;-68
2024/04/19 06:01:05;;;;;;;0.30;0.30;;;7.70;99.90;;;;;;5311764;26;20265;-66
2024/04/19 06:03:31;;;;;;;0.40;0.40;;;7.80;99.90;;;;;;5314209;26;20233;-67
2024/04/19 06:05:57;;;;;;;0.60;0.60;;;7.90;99.90;;;;;;5313124;26;20285;-67
2024/04/19 06:08:23;;;;;;;0.40;0.40;;;8.00;99.90;;;;;;5313604;26;20234;-67
2024/04/19 06:10:49;;;;;;;0.40;0.40;;;8.10;99.90;;;;;;5311810;27;20449;-65
2024/04/19 06:13:15;;;;;;;0.30;0.30;;;8.20;99.90;;;;;;5313742;26;20217;-68
2024/04/19 06:15:40;;;;;;;0.30;0.30;;;8.30;99.90;;;;;;5313520;26;20320;-67
2024/04/19 06:18:06;;;;;;;0.30;0.30;;;8.30;99.90;;;;;;5313577;26;20225;-66
2024/04/19 06:20:32;;;;;;;0.30;0.30;;;8.30;99.90;;;;;;5313420;27;20222;-67
2024/04/19 06:22:57;;;;;;;0.40;0.40;;;8.40;99.90;;;;;;5313493;27;20260;-68
2024/04/19 06:25:23;;;;;;;0.30;0.30;;;8.40;99.90;;;;;;5313099;26;20222;-66
2024/04/19 06:27:48;;;;;;;0.40;0.40;;;8.50;99.90;;;;;;5312897;27;20672;-68
2024/04/19 06:30:14;;;;;;;0.30;0.30;;;8.50;99.90;;;;;;5313292;26;20264;-67
2024/04/19 06:32:40;;;;;;;0.30;0.30;;;8.60;99.90;;;;;;5311432;27;20261;-67
2024/04/19 06:35:08;;;;;;;0.47;0.47;;;8.70;99.90;;;;;;5312897;27;20218;-69
2024/04/19 06:37:33;;;;;;;0.40;0.40;;;8.90;99.90;;;;;;5313160;26;20230;-69
2024/04/19 06:39:59;;;;;;;0.30;0.30;;;9.00;99.90;;;;;;5313191;26;20269;-69
2024/04/19 06:42:25;;;;;;;0.30;0.30;;;9.10;99.90;;;;;;5311102;27;20227;-69
2024/04/19 06:44:50;;;;;;;0.30;0.30;;;9.10;99.90;;;;;;5312728;26;20738;-70
2024/04/19 06:47:16;;;;;;;0.40;0.40;;;9.20;99.90;;;;;;5313089;26;20720;-71
2024/04/19 06:49:41;;;;;;;0.37;0.37;;;9.30;99.90;;;;;;5313224;26;20617;-69
2024/04/19 06:52:08;;;;;;;0.30;0.30;;;9.50;99.90;;;;;;5314033;26;20267;-69
2024/04/19 06:54:33;;;;;;;0.47;0.47;;;9.60;99.90;;;;;;5313201;27;20223;-69
2024/04/19 06:57:01;;;;;;;0.52;0.52;;;9.70;99.90;;;;;;5312568;26;20290;-69
2024/04/19 06:59:27;;;;;;;0.30;0.30;;;9.80;99.90;;;;;;5313029;26;20540;-71
2024/04/19 07:01:53;;;;;;;0.37;0.37;;;10.00;99.90;;;;;;5314480;26;20500;-70
2024/04/19 07:04:18;;;;;;;0.30;0.30;;;9.90;99.90;;;;;;5313690;27;20447;-68
2024/04/19 07:06:44;;;;;;;0.77;0.77;;;9.90;99.90;;;;;;5314091;26;20353;-70
2024/04/19 07:09:12;;;;;;;0.30;0.30;;;10.00;99.90;;;;;;5310649;26;20222;-69
2024/04/19 07:11:37;;;;;;;0.30;0.30;;;9.90;99.90;;;;;;5312760;26;20268;-69
2024/04/19 07:14:03;;;;;;;0.30;0.30;;;9.90;99.90;;;;;;5312420;26;20908;-69
2024/04/19 07:16:28;;;;;;;0.47;0.47;;;10.00;99.90;;;;;;5312353;27;20244;-69
2024/04/19 07:18:54;;;;;;;0.30;0.30;;;10.00;99.90;;;;;;5312963;27;20224;-69
2024/04/19 07:21:20;;;;;;;0.30;0.30;;;10.10;99.90;;;;;;5312377;27;20272;-72
2024/04/19 07:23:45;;;;;;;0.30;0.30;;;10.00;99.90;;;;;;5312589;26;20224;-70
2024/04/19 07:26:11;;;;;;;0.30;0.30;;;9.80;99.90;;;;;;5312512;27;20281;-70
2024/04/19 07:28:37;;;;;;;0.30;0.30;;;9.80;99.90;;;;;;5312814;26;20226;-66
2024/04/19 07:31:02;;;;;;;0.30;0.30;;;9.70;99.90;;;;;;5312108;27;20219;-65
2024/04/19 07:33:28;;;;;;;0.30;0.30;;;9.60;99.90;;;;;;5312378;27;20703;-65
2024/04/19 07:35:53;;;;;;;0.30;0.30;;;9.40;99.90;;;;;;5312030;26;20231;-68
2024/04/19 07:38:19;;;;;;;0.30;0.30;;;9.30;99.90;;;;;;5312813;26;20219;-68
2024/04/19 07:40:45;;;;;;;0.30;0.30;;;9.20;99.90;;;;;;5312759;27;20214;-69
2024/04/19 07:43:12;;;;;;;0.30;0.30;;;9.20;99.90;;;;;;5312661;26;20541;-69
2024/04/19 07:45:37;;;;;;;0.30;0.30;;;9.10;99.90;;;;;;5308265;27;20295;-69
2024/04/19 07:48:03;;;;;;;0.30;0.30;;;9.00;99.90;;;;;;5311937;27;20583;-67
2024/04/19 07:50:29;;;;;;;0.77;0.77;;;8.90;99.90;;;;;;5312254;27;20284;-67
2024/04/19 07:52:55;;;;;;;0.30;0.30;;;8.80;99.90;;;;;;5310213;26;20641;-69
2024/04/19 07:55:20;;;;;;;0.30;0.30;;;8.70;99.90;;;;;;5309131;27;20218;-69
2024/04/19 07:57:47;;;;;;;0.30;0.30;;;8.60;99.90;;;;;;5309570;27;20591;-69
2024/04/19 08:00:16;;;;;;;0.30;0.30;;;8.60;99.90;;;;;;5309578;26;20217;-68
2024/04/19 08:02:42;;;;;;;0.30;0.30;;;8.60;99.90;;;;;;5310018;26;20263;-67
2024/04/19 08:05:08;;;;;;;0.30;0.30;;;8.50;99.90;;;;;;5309543;26;20509;-68
2024/04/19 08:07:35;;;;;;;0.30;0.30;;;8.50;99.90;;;;;;5309279;26;20289;-69
2024/04/19 08:10:03;;;;;;;0.30;0.30;;;8.40;99.90;;;;;;5312061;26;20234;-67
2024/04/19 08:12:29;;;;;;;0.30;0.30;;;8.40;99.90;;;;;;5312159;27;20307;-69
2024/04/19 08:14:55;;;;;;;0.30;0.30;;;8.50;99.90;;;;;;5312020;26;20665;-68
2024/04/19 08:17:21;;;;;;;0.30;0.30;;;8.40;99.90;;;;;;5312335;26;20253;-67
2024/04/19 08:19:47;;;;;;;0.30;0.30;;;8.40;99.90;;;;;;5312235;27;20230;-68
2024/04/19 08:22:13;;;;;;;0.50;0.50;;;8.40;99.90;;;;;;5311925;26;20217;-67
2024/04/19 08:24:38;;;;;;;0.40;0.40;;;8.40;99.90;;;;;;5311975;26;20221;-67
2024/04/19 08:27:04;;;;;;;0.30;0.30;;;8.50;99.90;;;;;;5311470;27;20553;-67
2024/04/19 08:29:32;;;;;;;0.30;0.30;;;8.50;99.90;;;;;;5312203;27;20218;-68
2024/04/19 08:31:58;;;;;;;0.30;0.30;;;8.60;99.90;;;;;;5310810;26;20264;-68
2024/04/19 08:34:23;;;;;;;0.30;0.30;;;8.60;99.90;;;;;;5310437;26;20549;-67
2024/04/19 08:36:49;;;;;;;0.30;0.30;;;8.50;99.90;;;;;;5311510;27;20276;-69
2024/04/19 08:39:15;;;;;;;0.30;0.30;;;8.40;99.90;;;;;;5312058;27;20267;-69
2024/04/19 08:41:41;;;;;;;0.40;0.40;;;8.40;99.90;;;;;;5311740;26;20218;-69
2024/04/19 08:44:08;;;;;;;0.73;0.73;;;8.40;99.90;;;;;;5312961;27;20222;-69
2024/04/19 08:46:35;;;;;;;0.30;0.30;;;8.40;99.90;;;;;;5311514;26;20249;-67
2024/04/19 08:49:08;;;;;;;0.32;0.32;;;8.30;99.90;;;;;;5311748;27;20268;-68
2024/04/19 08:51:35;;;;;;;0.40;0.40;;;8.30;99.90;;;;;;5311546;26;20264;-69
2024/04/19 08:54:01;;;;;;;0.40;0.40;;;8.20;99.90;;;;;;5311783;27;20222;-68
2024/04/19 08:56:28;;;;;;;0.30;0.30;;;8.20;99.90;;;;;;5308857;27;20237;-70
2024/04/19 08:58:54;;;;;;;0.40;0.40;;;8.00;99.90;;;;;;5311381;26;20331;-68
2024/04/19 09:01:20;;;;;;;0.30;0.30;;;7.90;99.90;;;;;;5310933;26;20265;-69
2024/04/19 09:03:46;;;;;;;0.30;0.30;;;7.80;99.90;;;;;;5313289;26;20221;-68
2024/04/19 09:06:16;;;;;;;0.50;0.50;;;7.70;99.90;;;;;;5314284;26;20460;-69
2024/04/19 09:08:42;;;;;;;0.40;0.40;;;7.60;99.90;;;;;;5315044;26;20677;-68
2024/04/19 09:11:11;;;;;;;0.40;0.40;;;7.50;99.90;;;;;;5314769;26;20268;-68
2024/04/19 09:13:37;;;;;;;0.30;0.30;;;7.50;99.90;;;;;;5314405;27;20527;-68
2024/04/19 09:16:03;;;;;;;0.30;0.30;;;7.30;99.90;;;;;;5314096;26;20238;-68
2024/04/19 09:18:29;;;;;;;0.30;0.30;;;7.30;99.90;;;;;;5314473;26;20750;-68
2024/04/19 09:20:54;;;;;;;0.40;0.40;;;7.20;99.90;;;;;;5314593;26;20504;-68
2024/04/19 09:23:20;;;;;;;0.30;0.30;;;7.20;99.90;;;;;;5314501;27;20226;-67
2024/04/19 09:25:55;;;;;;;0.30;0.30;;;7.20;99.90;;;;;;5314226;26;20328;-67
2024/04/19 09:28:22;;;;;;;0.30;0.30;;;7.20;99.90;;;;;;5314540;27;20520;-69
2024/04/19 09:30:52;;;;;;;0.30;0.30;;;7.20;99.90;;;;;;5314588;26;20222;-69
2024/04/19 09:33:18;;;;;;;0.30;0.30;;;7.20;99.90;;;;;;5314214;26;20684;-69
2024/04/19 09:35:45;;;;;;;0.32;0.32;;;7.30;99.90;;;;;;5312132;26;20226;-69
2024/04/19 09:38:12;;;;;;;0.40;0.40;;;7.30;99.90;;;;;;5314372;27;20584;-68
2024/04/19 09:40:40;;;;;;;0.50;0.50;;;7.30;99.90;;;;;;5315026;26;20649;-70
2024/04/19 09:43:06;;;;;;;0.40;0.40;;;7.30;99.90;;;;;;5314269;26;20576;-68
2024/04/19 09:45:43;;;;;;;0.30;0.30;;;7.20;99.90;;;;;;5313946;27;20285;-69
2024/04/19 09:48:10;;;;;;;0.40;0.40;;;7.20;99.90;;;;;;5314131;26;20477;-68
2024/04/19 09:50:39;;;;;;;0.30;0.30;;;7.20;99.90;;;;;;5314173;26;20711;-69
2024/04/19 09:53:10;;;;;;;1.15;1.05;;;7.20;99.90;;;;;;5314230;27;20620;-68
2024/04/19 09:56:04;;;;;;;0.30;0.30;;;7.20;99.90;;;;;;5311981;27;20229;-69
2024/04/19 09:58:31;;;;;;;0.38;0.38;;;7.10;99.90;;;;;;5313697;26;20268;-69
2024/04/19 10:00:58;;;;;;;0.30;0.30;;;7.10;99.90;;;;;;5312236;27;20225;-66
2024/04/19 10:03:28;;;;;;;0.30;0.30;;;7.10;99.90;;;;;;5314152;26;20214;-68
2024/04/19 10:05:54;;;;;;;0.30;0.30;;;7.10;99.90;;;;;;5313691;26;20264;-68
2024/04/19 10:08:23;;;;;;;0.30;0.30;;;7.10;99.90;;;;;;5311811;26;20241;-66
2024/04/19 10:10:52;;;;;;;0.30;0.30;;;7.20;99.90;;;;;;5311918;26;20226;-67
2024/04/19 10:13:18;;;;;;;0.30;0.30;;;7.20;99.90;;;;;;5313882;26;20326;-68
2024/04/19 10:15:46;;;;;;;0.30;0.30;;;7.10;99.90;;;;;;5312069;26;20265;-67
2024/04/19 10:18:12;;;;;;;0.30;0.30;;;7.10;99.90;;;;;;5314179;26;20249;-68
2024/04/19 10:20:43;;;;;;;0.30;0.30;;;7.10;99.90;;;;;;5313879;27;20228;-68
2024/04/19 10:23:13;;;;;;;0.40;0.40;;;7.10;99.90;;;;;;5311866;26;20843;-68
2024/04/19 10:25:38;;;;;;;0.40;0.40;;;7.10;99.90;;;;;;5313403;26;20218;-68
2024/04/19 10:28:09;;;;;;;0.33;0.33;;;7.10;99.90;;;;;;5313530;26;20221;-68
2024/04/19 10:30:35;;;;;;;0.30;0.30;;;7.10;99.90;;;;;;5310806;26;20452;-68
2024/04/19 10:33:12;;;;;;;0.30;0.30;;;7.10;99.90;;;;;;5304778;26;20681;-68
2024/04/19 10:35:41;;;;;;;0.40;0.40;;;7.20;99.90;;;;;;5277494;27;20291;-67
2024/04/19 10:38:07;;;;;;;0.30;0.30;;;7.20;99.90;;;;;;5298239;27;20265;-67
2024/04/19 10:40:36;;;;;;;0.30;0.30;;;7.20;99.90;;;;;;5308599;27;20238;-68
2024/04/19 10:43:05;;;;;;;0.30;0.30;;;7.20;99.90;;;;;;5313491;27;20226;-68
2024/04/19 10:45:31;;;;;;;0.30;0.30;;;7.30;99.90;;;;;;5301580;26;20291;-66
2024/04/19 10:48:00;;;;;;;0.30;0.30;;;7.40;99.90;;;;;;5278994;27;20222;-66
2024/04/19 10:50:29;;;;;;;0.30;0.30;;;7.40;99.90;;;;;;5279287;27;20746;-67
2024/04/19 10:52:56;;;;;;;0.30;0.30;;;7.50;99.90;;;;;;5311155;27;20342;-67
2024/04/19 10:55:23;;;;;;;0.30;0.30;;;7.50;99.90;;;;;;5292236;27;20328;-66
2024/04/19 10:57:49;;;;;;;0.32;0.32;;;7.50;99.90;;;;;;5277875;27;20280;-68
2024/04/19 11:00:14;;;;;;;0.50;0.50;;;7.60;99.90;;;;;;5279596;27;20219;-67
2024/04/19 11:02:40;;;;;;;0.30;0.30;;;7.60;99.90;;;;;;5280225;27;20215;-66
2024/04/19 11:05:06;;;;;;;0.30;0.30;;;7.70;99.90;;;;;;5277274;27;20448;-68
2024/04/19 11:07:34;;;;;;;0.30;0.30;;;7.80;99.90;;;;;;5278858;27;20519;-67
2024/04/19 11:10:00;;;;;;;0.30;0.30;;;7.80;99.90;;;;;;5279347;27;20227;-67
2024/04/19 11:12:26;;;;;;;0.40;0.40;;;7.90;99.90;;;;;;5279169;27;20223;-68
2024/04/19 11:14:52;;;;;;;0.30;0.30;;;7.90;99.90;;;;;;5278907;27;20226;-64
2024/04/19 11:17:18;;;;;;;0.30;0.30;;;7.90;99.90;;;;;;5279018;27;20884;-65
2024/04/19 11:19:46;;;;;;;0.30;0.30;;;7.90;99.90;;;;;;5279136;27;20465;-65
2024/04/19 11:22:11;;;;;;;0.30;0.30;;;7.80;99.90;;;;;;5279295;27;20492;-66
2024/04/19 11:24:38;;;;;;;0.30;0.30;;;7.70;99.90;;;;;;5277170;27;20238;-65
2024/04/19 11:27:04;;;;;;;0.30;0.30;;;7.70;99.90;;;;;;5276333;27;20312;-67
2024/04/19 11:29:29;;;;;;;0.30;0.30;;;7.60;99.90;;;;;;5293881;27;20717;-66
2024/04/19 11:31:55;;;;;;;0.30;0.30;;;7.60;99.90;;;;;;5278570;27;20450;-61
2024/04/19 11:34:20;;;;;;;0.40;0.40;;;7.60;99.90;;;;;;5279216;27;20274;-62
2024/04/19 11:36:46;;;;;;;0.30;0.30;;;7.50;99.90;;;;;;5278061;27;20247;-61
2024/04/19 11:39:12;;;;;;;0.30;0.30;;;7.40;99.90;;;;;;5278745;27;20278;-61
2024/04/19 11:41:39;;;;;;;0.30;0.30;;;7.30;99.90;;;;;;5278682;27;20235;-60
2024/04/19 11:44:05;;;;;;;0.30;0.30;;;7.30;99.90;;;;;;5278477;27;20551;-62
2024/04/19 11:46:41;;;;;;;0.30;0.30;;;7.30;99.90;;;;;;5278209;27;20238;-59
2024/04/19 11:49:15;;;;;;;0.30;0.30;;;7.30;99.90;;;;;;5278495;27;20262;-61
2024/04/19 11:51:42;;;;;;;0.40;0.40;;;7.40;99.90;;;;;;5278695;27;20286;-61
2024/04/19 11:54:08;;;;;;;0.30;0.30;;;7.40;99.90;;;;;;5278719;27;20223;-61
2024/04/19 11:56:33;;;;;;;0.30;0.30;;;7.30;99.90;;;;;;5278280;27;20265;-60
2024/04/19 11:59:02;;;;;;;0.40;0.40;;;7.30;99.90;;;;;;5276354;27;20219;-63
2024/04/19 12:01:27;;;;;;;0.40;0.40;;;7.30;99.90;;;;;;5274860;27;20514;-61
2024/04/19 12:03:56;;;;;;;0.40;0.40;;;7.20;99.90;;;;;;5275939;27;20282;-61
2024/04/19 12:06:22;;;;;;;0.30;0.30;;;7.20;99.90;;;;;;5275586;27;20238;-62
2024/04/19 12:08:49;;;;;;;0.30;0.30;;;7.20;99.90;;;;;;5277178;27;20284;-59
2024/04/19 12:11:14;;;;;;;0.30;0.30;;;7.20;99.90;;;;;;5276716;27;20469;-60
2024/04/19 12:13:40;;;;;;;0.40;0.40;;;7.10;99.90;;;;;;5277951;27;20262;-60
2024/04/19 12:16:06;;;;;;;0.40;0.40;;;7.10;99.90;;;;;;5277538;27;20281;-60
2024/04/19 12:18:35;;;;;;;0.30;0.30;;;7.10;99.90;;;;;;5278577;27;20325;-64
2024/04/19 12:21:01;;;;;;;0.30;0.30;;;7.10;99.90;;;;;;5277960;27;20235;-63
2024/04/19 12:23:26;;;;;;;0.30;0.30;;;7.20;99.90;;;;;;5277819;27;20227;-60
2024/04/19 12:25:52;;;;;;;0.30;0.30;;;7.20;99.90;;;;;;5278057;27;20474;-63
2024/04/19 12:28:23;;;;;;;0.40;0.40;;;7.20;99.90;;;;;;5277814;27;20744;-66
2024/04/19 12:30:48;;;;;;;0.30;0.30;;;7.10;99.90;;;;;;5275910;27;20223;-65
2024/04/19 12:33:17;;;;;;;0.30;0.30;;;7.20;99.90;;;;;;5277751;27;20234;-65
2024/04/19 12:35:44;;;;;;;0.30;0.30;;;7.20;99.90;;;;;;5277304;27;20258;-65
2024/04/19 12:38:09;;;;;;;0.30;0.30;;;7.10;99.90;;;;;;5278218;27;20243;-65
2024/04/19 12:40:38;;;;;;;0.40;0.40;;;7.10;99.90;;;;;;5273377;27;20669;-65
2024/04/19 12:43:06;;;;;;;0.38;0.38;;;7.10;99.90;;;;;;5245574;27;20603;-64
2024/04/19 12:45:31;;;;;;;0.40;0.40;;;7.10;99.90;;;;;;5247390;27;20279;-65
2024/04/19 12:48:07;;;;;;;0.30;0.30;;;7.10;99.90;;;;;;5247516;27;20262;-65
2024/04/19 12:50:36;;;;;;;0.30;0.30;;;7.20;99.90;;;;;;5247710;27;20230;-66
2024/04/19 12:53:03;;;;;;;0.30;0.30;;;7.30;99.90;;;;;;5278370;27;20257;-66
2024/04/19 12:55:34;;;;;;;0.40;0.40;;;7.30;99.90;;;;;;5280586;27;20253;-66
2024/04/19 12:58:00;;;;;;;0.38;0.38;;;7.30;99.90;;;;;;5280813;27;20573;-65
2024/04/19 13:00:27;;;;;;;0.30;0.30;;;7.40;99.90;;;;;;5280660;27;20223;-65
2024/04/19 13:02:55;;;;;;;0.35;0.35;;;7.40;99.90;;;;;;5281055;27;20229;-65
2024/04/19 13:05:30;;;;;;;0.30;0.30;;;7.40;99.90;;;;;;5280572;27;20238;-65
2024/04/19 13:07:58;;;;;;;0.40;0.40;;;7.40;99.90;;;;;;5284152;27;20230;-65
2024/04/19 13:10:24;;;;;;;0.30;0.30;;;7.40;99.90;;;;;;5296796;27;20285;-64
2024/04/19 13:12:50;;;;;;;0.30;0.30;;;7.40;99.90;;;;;;5282197;27;20230;-65
2024/04/19 13:15:15;;;;;;;0.37;0.37;;;7.50;99.90;;;;;;5279923;27;20476;-66
2024/04/19 13:17:41;;;;;;;0.30;0.30;;;7.50;99.90;;;;;;5280304;27;20230;-65
2024/04/19 13:20:07;;;;;;;0.30;0.30;;;7.50;99.90;;;;;;5280316;27;20706;-65
2024/04/19 13:22:32;;;;;;;0.38;0.38;;;7.60;99.90;;;;;;5279480;27;20610;-65
2024/04/19 13:24:58;;;;;;;0.33;0.33;;;7.60;99.90;;;;;;5278504;27;20230;-65
2024/04/19 13:27:24;;;;;;;0.40;0.40;;;7.70;99.90;;;;;;5280256;27;20238;-66
2024/04/19 13:29:49;;;;;;;0.30;0.30;;;7.80;99.90;;;;;;5280532;27;20261;-66
2024/04/19 13:32:15;;;;;;;0.30;0.30;;;7.80;99.90;;;;;;5280685;27;20346;-66
2024/04/19 13:34:41;;;;;;;0.40;0.40;;;7.80;99.90;;;;;;5281183;27;20269;-65
2024/04/19 13:37:10;;;;;;;0.40;0.40;;;7.80;99.90;;;;;;5280182;27;20239;-66
2024/04/19 13:39:38;;;;;;;0.43;0.43;;;7.80;99.90;;;;;;5280130;27;20247;-65
2024/04/19 13:42:04;;;;;;;0.30;0.30;;;7.80;99.90;;;;;;5280406;27;20223;-65
2024/04/19 13:44:29;;;;;;;0.30;0.30;;;7.90;99.90;;;;;;5280109;27;20273;-66
2024/04/19 13:46:55;;;;;;;0.30;0.30;;;7.90;99.90;;;;;;5279929;27;20509;-65
2024/04/19 13:49:21;;;;;;;0.30;0.30;;;7.90;99.90;;;;;;5279759;27;20226;-65
2024/04/19 13:51:46;;;;;;;0.30;0.30;;;7.90;99.90;;;;;;5280099;27;20223;-65
2024/04/19 13:54:15;;;;;;;0.30;0.30;;;8.00;99.90;;;;;;5280021;27;20222;-66
2024/04/19 13:56:41;;;;;;;0.30;0.30;;;8.00;99.90;;;;;;5279706;27;20243;-65
2024/04/19 13:59:10;;;;;;;0.30;0.30;;;8.00;99.90;;;;;;5280183;27;20332;-65
2024/04/19 14:01:36;;;;;;;0.35;0.35;;;8.00;99.90;;;;;;5279978;27;20473;-65
2024/04/19 14:04:04;;;;;;;0.30;0.30;;;7.90;99.90;;;;;;5279811;27;20266;-65
2024/04/19 14:06:30;;;;;;;0.30;0.30;;;7.80;99.90;;;;;;5279337;27;20238;-65
2024/04/19 14:08:56;;;;;;;0.30;0.30;;;7.70;99.90;;;;;;5278078;27;20227;-65
2024/04/19 14:11:23;;;;;;;0.30;0.30;;;7.70;99.90;;;;;;5279994;27;20459;-65
2024/04/19 14:13:48;;;;;;;0.30;0.20;;;7.70;99.90;;;;;;5279960;27;20514;-66
2024/04/19 14:16:17;;;;;;;0.30;0.30;;;7.70;99.90;;;;;;5279767;27;20250;-65
2024/04/19 14:18:43;;;;;;;0.30;0.30;;;7.70;99.90;;;;;;5279629;27;20271;-66
2024/04/19 14:21:09;;;;;;;0.30;0.30;;;7.70;99.90;;;;;;5279629;27;20795;-66
2024/04/19 14:23:34;;;;;;;0.30;0.30;;;7.70;99.90;;;;;;5279578;27;20445;-66
2024/04/19 14:26:00;;;;;;;0.30;0.30;;;7.70;99.90;;;;;;5279259;27;20256;-66
2024/04/19 14:28:26;;;;;;;0.30;0.30;;;7.70;99.90;;;;;;5279716;27;20227;-66
2024/04/19 14:30:52;;;;;;;0.30;0.30;;;7.70;99.90;;;;;;5279456;27;20283;-66
2024/04/19 14:33:17;;;;;;;0.30;0.30;;;7.60;99.90;;;;;;5279275;27;20219;-66
2024/04/19 14:35:43;;;;;;;0.30;0.30;;;7.60;99.90;;;;;;5278604;27;20222;-66
2024/04/19 14:38:09;;;;;;;0.30;0.30;;;7.50;99.90;;;;;;5279273;27;20222;-66
2024/04/19 14:40:37;;;;;;;0.30;0.30;;;7.50;99.90;;;;;;5279558;27;20960;-65
2024/04/19 14:43:03;;;;;;;0.30;0.30;;;7.40;99.90;;;;;;5279580;27;20219;-65
2024/04/19 14:45:29;;;;;;;0.40;0.40;;;7.40;99.90;;;;;;5279519;27;20266;-64
2024/04/19 14:47:54;;;;;;;0.30;0.30;;;7.40;99.90;;;;;;5277144;27;20250;-65
2024/04/19 14:50:20;;;;;;;1.33;0.57;;;7.40;99.90;;;;;;5279316;27;20271;-65
2024/04/19 14:52:46;;;;;;;0.30;0.30;;;7.40;99.90;;;;;;5278814;27;20223;-65
2024/04/19 14:55:11;;;;;;;0.30;0.30;;;7.40;99.90;;;;;;5279176;27;20498;-65
2024/04/19 14:57:37;;;;;;;0.30;0.30;;;7.40;99.90;;;;;;5277400;27;20310;-65
2024/04/19 15:00:04;;;;;;;0.40;0.40;;;7.40;99.90;;;;;;5278755;27;20224;-65
2024/04/19 15:02:33;;;;;;;0.32;0.32;;;7.40;99.90;;;;;;5278628;27;20282;-65
2024/04/19 15:05:01;;;;;;;0.30;0.30;;;7.50;99.90;;;;;;5276777;27;20436;-65
2024/04/19 15:07:26;;;;;;;0.30;0.30;;;7.60;99.90;;;;;;5278659;27;20268;-65
2024/04/19 15:09:52;;;;;;;0.53;0.53;;;7.70;99.90;;;;;;5278729;27;20725;-65
2024/04/19 15:12:17;;;;;;;0.40;0.40;;;7.70;99.90;;;;;;5279432;27;20680;-66
2024/04/19 15:14:43;;;;;;;0.30;0.30;;;7.70;99.90;;;;;;5278687;27;20223;-66
2024/04/19 15:17:08;;;;;;;0.30;0.30;;;7.70;99.90;;;;;;5278935;27;20235;-65
2024/04/19 15:19:34;;;;;;;0.40;0.40;;;7.70;99.90;;;;;;5278944;27;20325;-65
2024/04/19 15:22:00;;;;;;;0.30;0.30;;;7.80;99.90;;;;;;5279407;27;20266;-65
2024/04/19 15:24:25;;;;;;;0.30;0.30;;;7.70;99.90;;;;;;5278981;27;20261;-65
2024/04/19 15:26:52;;;;;;;0.37;0.37;;;7.70;99.90;;;;;;5278422;27;20270;-65
2024/04/19 15:29:18;;;;;;;0.30;0.30;;;7.80;99.90;;;;;;5278853;27;20458;-66
2024/04/19 15:31:44;;;;;;;0.32;0.32;;;7.70;99.90;;;;;;5278743;27;20219;-65
2024/04/19 15:34:12;;;;;;;0.30;0.30;;;7.70;99.90;;;;;;5278699;27;20324;-65
2024/04/19 15:36:37;;;;;;;0.40;0.40;;;7.70;99.90;;;;;;5278497;27;20641;-66
2024/04/19 15:39:04;;;;;;;0.30;0.30;;;7.70;99.90;;;;;;5278759;27;20227;-66
2024/04/19 15:41:29;;;;;;;0.38;0.38;;;7.60;99.90;;;;;;5278572;27;20565;-66
2024/04/19 15:43:55;;;;;;;0.30;0.30;;;7.50;99.90;;;;;;5278584;27;20226;-66
2024/04/19 15:46:22;;;;;;;0.30;0.30;;;7.50;99.90;;;;;;5278279;27;20638;-66
2024/04/19 15:48:47;;;;;;;0.45;0.45;;;7.40;99.90;;;;;;5278359;27;20648;-66
2024/04/19 15:51:13;;;;;;;0.40;0.40;;;7.30;99.90;;;;;;5278573;27;20317;-66
2024/04/19 15:53:39;;;;;;;0.30;0.30;;;7.30;99.90;;;;;;5278520;27;20550;-66
2024/04/19 15:56:05;;;;;;;0.30;0.30;;;7.30;99.90;;;;;;5277961;27;20223;-66
2024/04/19 15:58:31;;;;;;;0.30;0.30;;;7.20;99.90;;;;;;5278261;27;20580;-66
2024/04/19 16:00:56;;;;;;;0.30;0.30;;;7.10;99.90;;;;;;5278321;27;20229;-66
2024/04/19 16:03:22;;;;;;;0.33;0.33;;;7.10;99.90;;;;;;5278508;27;20269;-66
2024/04/19 16:05:48;;;;;;;0.40;0.40;;;7.00;99.90;;;;;;5278130;27;20223;-66
2024/04/19 16:08:15;;;;;;;0.37;0.37;;;7.00;99.90;;;;;;5278069;27;20231;-66
2024/04/19 16:10:43;;;;;;;0.40;0.40;;;7.00;99.90;;;;;;5278413;27;20261;-66
2024/04/19 16:13:09;;;;;;;0.40;0.40;;;7.00;99.90;;;;;;5277954;27;20546;-66
2024/04/19 16:15:35;;;;;;;0.30;0.30;;;6.90;99.90;;;;;;5277658;27;20268;-65
2024/04/19 16:18:00;;;;;;;0.40;0.40;;;7.00;99.90;;;;;;5277683;27;20791;-65
2024/04/19 16:20:26;;;;;;;0.30;0.30;;;7.00;99.90;;;;;;5277871;27;20238;-66
2024/04/19 16:22:52;;;;;;;0.30;0.30;;;7.00;99.90;;;;;;5278247;27;20227;-66
2024/04/19 16:25:17;;;;;;;0.30;0.30;;;7.00;99.90;;;;;;5278066;27;20743;-65
2024/04/19 16:27:44;;;;;;;0.30;0.30;;;7.00;99.90;;;;;;5277835;27;20238;-65
2024/04/19 16:30:10;;;;;;;0.30;0.30;;;7.00;99.90;;;;;;5277872;27;20554;-66
2024/04/19 16:32:36;;;;;;;0.30;0.30;;;7.00;99.90;;;;;;5278205;27;20222;-66
2024/04/19 16:35:02;;;;;;;0.30;0.30;;;7.10;99.90;;;;;;5277042;27;20500;-66
2024/04/19 16:37:28;;;;;;;0.40;0.40;;;7.10;99.90;;;;;;5277872;27;20341;-66
2024/04/19 16:39:56;;;;;;;0.50;0.50;;;7.10;99.90;;;;;;5277670;27;20226;-66
2024/04/19 16:42:22;;;;;;;0.30;0.30;;;7.20;99.90;;;;;;5277200;27;20218;-65
2024/04/19 16:44:49;;;;;;;0.30;0.30;;;7.20;99.90;;;;;;5275393;27;20577;-66
2024/04/19 16:47:16;;;;;;;0.40;0.40;;;7.20;99.90;;;;;;5277283;27;20714;-66
2024/04/19 16:49:41;;;;;;;0.30;0.30;;;7.20;99.90;;;;;;5277525;27;20713;-67
2024/04/19 16:52:10;;;;;;;0.30;0.30;;;7.20;99.90;;;;;;5277361;27;20262;-66
2024/04/19 16:54:35;;;;;;;0.30;0.30;;;7.20;99.90;;;;;;5277104;27;20234;-65
2024/04/19 16:57:01;;;;;;;0.30;0.30;;;7.20;99.90;;;;;;5276324;27;20744;-65
2024/04/19 16:59:27;;;;;;;0.30;0.30;;;7.20;99.90;;;;;;5275770;27;20521;-66